CDT,Max TemperatureF,Mean TemperatureF,Min TemperatureF,Max Dew PointF,MeanDew PointF,Min DewpointF,Max Humidity, Mean Humidity, Min Humidity, Max Sea Level PressureIn, Mean Sea Level PressureIn, Min Sea Level PressureIn, Max VisibilityMiles, Mean VisibilityMiles, Min VisibilityMiles, Max Wind SpeedMPH, Mean Wind SpeedMPH, Max Gust SpeedMPH,PrecipitationIn, CloudCover, Events, WindDirDegrees
2013-10-1,84,78,71,72,71,68,100,85,69,30.00,29.96,29.88,10,8,1,12,6,16,0.01,6,Rain,149
2013-10-2,86,78,69,72,69,67,100,78,55,30.05,29.99,29.93,10,9,7,12,6,15,0.00,4,,149
2013-10-3,86,79,71,72,70,68,93,76,59,30.00,29.95,29.88,10,9,5,14,7,20,0.00,4,,167
2013-10-4,88,78,68,73,71,68,100,78,55,29.98,29.93,29.89,10,8,2,17,7,21,0.00,2,,162
2013-10-5,85,71,57,75,70,50,94,82,70,30.03,29.93,29.86,10,9,1,16,8,22,0.43,6,Rain-Thunderstorm,208
2013-10-6,73,63,53,49,46,39,83,57,31,30.06,30.01,29.97,10,10,10,18,6,24,0.00,0,,302
2013-10-7,76,64,52,52,47,40,86,58,29,30.12,30.08,30.04,10,10,10,13,3,16,0.00,0,,337
2013-10-8,73,61,49,52,50,48,93,69,44,30.16,30.10,30.04,10,10,8,10,3,20,0.00,0,,72
2013-10-9,77,63,49,55,52,48,100,72,43,30.13,30.07,30.04,10,10,7,7,2,10,0.00,0,,128
2013-10-10,80,66,52,60,55,52,93,66,39,30.12,30.04,29.97,10,10,7,12,3,16,0.00,0,,119
2013-10-11,83,71,59,66,63,58,97,76,55,30.01,29.95,29.89,10,9,5,15,8,20,0.00,1,,156
2013-10-12,76,72,68,73,69,64,100,90,79,30.10,30.03,29.93,10,6,0,12,6,16,0.01,7,Fog-Rain,124
2013-10-13,73,70,66,68,66,64,100,87,73,30.25,30.18,30.09,10,6,0,10,4,15,0.00,7,Fog,67
2013-10-14,75,69,62,68,63,56,97,88,78,30.17,30.09,30.00,10,9,5,8,5,12,0.03,5,Rain,90
2013-10-15,77,70,62,72,67,61,100,88,76,30.01,29.95,29.91,9,4,1,16,7,22,1.97,7,Rain,163
2013-10-16,63,60,57,63,58,55,100,94,87,30.07,30.01,29.95,10,7,2,12,5,15,0.30,8,Rain,10
2013-10-17,69,60,50,56,51,46,100,72,44,30.10,30.03,30.00,10,9,2,12,3,14,0.00,2,,320
2013-10-18,70,59,48,58,52,47,93,70,47,30.07,30.00,29.94,10,10,7,9,2,15,T,4,Rain,142
2013-10-19,65,56,46,58,46,34,93,62,31,30.15,30.07,29.98,10,10,10,17,6,22,0.00,4,,320
2013-10-20,68,55,41,48,44,40,96,69,42,30.10,30.03,29.96,10,10,4,12,4,17,0.00,0,,165
2013-10-21,71,61,50,61,54,45,93,76,59,30.06,30.02,29.95,10,10,2,14,4,18,0.10,7,Rain,82
2013-10-22,71,62,53,55,52,43,100,69,37,30.14,30.06,30.00,10,10,10,14,5,17,0.00,5,,343
2013-10-23,72,60,48,51,47,41,93,64,34,30.15,30.09,30.05,10,10,10,14,5,20,0.00,0,,143
2013-10-24,74,62,50,53,50,45,93,67,41,30.32,30.18,30.05,10,10,8,14,4,20,0.00,0,,60
2013-10-25,60,52,43,43,37,32,71,56,40,30.49,30.39,30.32,10,10,10,13,7,20,0.00,0,,76
2013-10-26,58,50,42,57,51,40,100,83,66,30.29,30.18,30.13,10,4,1,12,2,15,2.22,7,Rain-Thunderstorm,40
2013-10-27,66,60,54,58,56,54,100,87,73,30.12,30.06,30.00,10,7,2,9,3,16,0.10,6,Rain,325
2013-10-28,73,65,57,61,59,56,100,83,66,30.17,30.11,30.05,10,8,5,8,2,12,0.00,5,,122
2013-10-29,78,70,61,66,64,60,100,81,62,30.17,30.12,30.06,10,9,5,14,9,20,0.00,4,,165
2013-10-30,69,67,64,66,63,58,100,91,81,30.10,30.00,29.86,10,6,2,24,9,37,0.98,6,Rain,165
2013-10-31,77,65,53,68,61,39,100,64,27,29.86,29.75,29.64,10,7,2,25,9,35,0.34,5,Rain,221